Time;durP1;ratioP1;P1;durP2;ratioP2;P2;SDS_P1;SDS_P2;PMS_P1;PMS_P2;Temp;Humidity;BMP_temperature;BMP_pressure;BME280_temperature;BME280_humidity;BME280_pressure;Samples;Min_cycle;Max_cycle;Signal;HPM_P1;HPM_P2
2022/07/21 00:00:24;;;;;;;6.90;3.60;;;;;;;21.88;53.94;100821.40;107130;1276;138871;-82
2022/07/21 00:03:04;;;;;;;8.10;3.70;;;;;;;21.90;53.99;100816.42;107360;1276;108936;-82
2022/07/21 00:05:32;;;;;;;6.50;3.80;;;;;;;21.88;54.28;100814.75;107274;1276;136723;-82
2022/07/21 00:08:00;;;;;;;6.50;3.60;;;;;;;21.87;54.48;100817.33;107574;1275;108287;-82
2022/07/21 00:10:28;;;;;;;7.20;3.50;;;;;;;21.82;54.84;100814.03;107438;1276;92900;-82
2022/07/21 00:12:56;;;;;;;6.40;3.40;;;;;;;21.85;54.56;100816.02;106982;1276;138913;-81
2022/07/21 00:15:27;;;;;;;6.30;3.50;;;;;;;21.91;54.49;100821.42;106923;1276;109247;-81
2022/07/21 00:17:55;;;;;;;6.80;3.50;;;;;;;21.86;55.09;100819.56;106755;1275;143233;-83
2022/07/21 00:20:24;;;;;;;6.40;3.60;;;;;;;21.80;55.15;100821.46;107117;1276;109646;-83
2022/07/21 00:22:52;;;;;;;6.70;3.70;;;;;;;21.73;55.56;100822.42;106695;1275;138820;-82
2022/07/21 00:25:20;;;;;;;6.30;3.50;;;;;;;21.69;55.63;100826.88;107131;1276;94273;-82
2022/07/21 00:27:48;;;;;;;6.60;3.60;;;;;;;21.67;55.41;100829.15;106998;1275;107875;-80
2022/07/21 00:30:16;;;;;;;6.50;3.40;;;;;;;21.63;56.05;100825.25;105445;1276;138954;-81
2022/07/21 00:32:44;;;;;;;6.80;3.30;;;;;;;21.60;56.46;100822.52;105734;1276;108338;-82
2022/07/21 00:35:13;;;;;;;6.40;3.40;;;;;;;21.53;56.69;100820.83;105509;1276;139112;-79
2022/07/21 00:37:42;;;;;;;6.90;3.50;;;;;;;21.44;56.95;100819.41;105621;1276;94322;-82
2022/07/21 00:40:13;;;;;;;6.70;3.60;;;;;;;21.38;57.12;100817.42;105694;1276;108078;-79
2022/07/21 00:42:43;;;;;;;7.00;3.50;;;;;;;21.35;56.86;100817.45;105568;1276;139060;-79
2022/07/21 00:45:12;;;;;;;7.50;3.50;;;;;;;21.32;56.94;100820.75;105600;1276;109752;-83
2022/07/21 00:47:40;;;;;;;6.20;3.60;;;;;;;21.23;57.42;100814.64;105498;1276;140057;-79
2022/07/21 00:50:15;;;;;;;6.00;3.40;;;;;;;21.14;57.38;100814.48;105559;1275;94223;-80
2022/07/21 00:52:44;;;;;;;6.50;3.80;;;;;;;21.07;57.37;100812.20;105525;1276;138621;-79
2022/07/21 00:55:16;;;;;;;7.70;4.20;;;;;;;21.03;57.28;100814.97;105537;1276;99446;-80
2022/07/21 00:57:45;;;;;;;7.80;4.20;;;;;;;21.07;57.11;100814.02;105596;1276;110352;-80
2022/07/21 01:00:17;;;;;;;6.20;3.50;;;;;;;21.00;57.32;100819.86;105559;1275;140412;-80
2022/07/21 01:02:46;;;;;;;6.50;3.50;;;;;;;21.01;57.50;100826.64;105647;1276;94346;-81
2022/07/21 01:05:15;;;;;;;8.20;3.70;;;;;;;21.01;57.59;100830.46;105718;1276;139685;-80
2022/07/21 01:07:46;;;;;;;7.20;4.10;;;;;;;20.94;57.56;100832.49;105781;1277;100622;-81
2022/07/21 01:10:16;;;;;;;7.50;3.90;;;;;;;20.95;57.62;100838.25;105799;1275;107791;-81
2022/07/21 01:12:45;;;;;;;7.20;3.70;;;;;;;20.94;57.72;100842.48;106078;1276;138390;-80
2022/07/21 01:15:15;;;;;;;9.40;4.20;;;;;;;20.97;57.43;100846.76;105555;1277;94217;-79
2022/07/21 01:17:45;;;;;;;7.60;3.90;;;;;;;21.02;57.28;100854.42;105530;1274;140406;-81
2022/07/21 01:20:17;;;;;;;7.20;4.10;;;;;;;21.06;57.48;100857.77;105823;1276;99839;-81
2022/07/21 01:22:49;;;;;;;7.30;3.90;;;;;;;21.09;57.52;100859.57;105283;1276;139446;-81
2022/07/21 01:25:19;;;;;;;10.00;4.00;;;;;;;21.01;57.89;100861.34;105566;1276;94337;-80
2022/07/21 01:27:47;;;;;;;6.80;4.10;;;;;;;20.97;57.99;100862.13;105596;1277;94307;-82
2022/07/21 01:30:15;;;;;;;7.30;3.80;;;;;;;20.91;58.43;100858.92;105514;1276;138598;-80
2022/07/21 01:32:44;;;;;;;8.20;4.00;;;;;;;20.83;58.83;100851.08;105715;1276;99917;-81
2022/07/21 01:35:14;;;;;;;6.40;3.70;;;;;;;20.79;59.19;100850.25;105614;1276;143297;-80
2022/07/21 01:37:46;;;;;;;6.70;3.90;;;;;;;20.78;59.12;100848.71;105860;1276;95097;-80
2022/07/21 01:43:04;;;;;;;7.40;4.30;;;;;;;20.67;58.83;100858.55;105630;1276;107433;-80
2022/07/21 01:45:40;;;;;;;7.90;4.10;;;;;;;20.63;59.03;100864.52;105578;1276;98704;-81
2022/07/21 01:48:09;;;;;;;7.30;4.40;;;;;;;20.61;58.96;100865.93;105577;1275;138143;-81
2022/07/21 01:50:38;;;;;;;7.90;4.20;;;;;;;20.61;59.12;100871.20;105735;1276;94716;-81
2022/07/21 01:53:06;;;;;;;7.90;4.20;;;;;;;20.58;59.39;100874.61;105700;1276;138647;-82
2022/07/21 01:55:35;;;;;;;6.70;4.30;;;;;;;20.51;59.62;100874.60;105775;1276;108858;-81
2022/07/21 01:58:03;;;;;;;6.90;4.20;;;;;;;20.47;59.94;100874.73;105649;1276;99566;-82
2022/07/21 02:00:31;;;;;;;7.80;3.90;;;;;;;20.44;59.96;100871.62;105462;1276;138795;-80
2022/07/21 02:02:59;;;;;;;7.70;4.20;;;;;;;20.40;59.98;100873.36;105556;1277;94365;-80
2022/07/21 02:05:27;;;;;;;7.40;4.10;;;;;;;20.34;60.34;100866.84;105300;1276;140579;-79
2022/07/21 02:07:54;;;;;;;7.80;4.20;;;;;;;20.32;60.30;100862.11;105581;1276;107850;-81
2022/07/21 02:10:25;;;;;;;7.90;4.40;;;;;;;20.32;60.14;100866.06;105691;1276;99010;-80
2022/07/21 02:12:53;;;;;;;7.10;4.00;;;;;;;20.30;60.10;100866.02;105368;1274;138282;-81
2022/07/21 02:15:21;;;;;;;7.60;4.30;;;;;;;20.26;60.23;100867.29;105635;1276;94344;-81
2022/07/21 02:17:49;;;;;;;9.10;4.50;;;;;;;20.24;60.64;100867.08;105365;1276;138392;-80
2022/07/21 02:20:17;;;;;;;8.10;4.20;;;;;;;20.20;60.70;100867.27;105474;1276;107888;-82
2022/07/21 02:22:45;;;;;;;6.90;4.20;;;;;;;20.21;60.53;100868.13;105450;1276;140202;-79
2022/07/21 02:25:14;;;;;;;6.80;4.00;;;;;;;20.23;60.66;100871.27;105615;1276;109064;-80
2022/07/21 02:27:44;;;;;;;7.10;4.20;;;;;;;20.17;60.81;100869.98;105550;1276;94641;-80
2022/07/21 02:30:12;;;;;;;7.60;4.10;;;;;;;20.11;60.73;100873.92;105309;1276;139006;-81
2022/07/21 02:32:41;;;;;;;8.40;4.10;;;;;;;20.10;60.52;100872.54;105342;1276;108308;-79
2022/07/21 02:35:10;;;;;;;8.10;4.30;;;;;;;20.11;60.77;100875.92;105392;1276;138672;-80
2022/07/21 02:37:39;;;;;;;7.30;3.90;;;;;;;20.08;60.72;100877.57;105695;1276;109249;-80
2022/07/21 02:40:08;;;;;;;7.50;4.00;;;;;;;19.99;61.27;100873.54;105752;1276;94357;-81
2022/07/21 02:42:37;;;;;;;6.90;3.90;;;;;;;19.95;61.47;100874.35;105528;1276;137427;-81
2022/07/21 02:45:07;;;;;;;7.20;4.30;;;;;;;19.89;61.67;100868.01;105608;1276;109084;-82
2022/07/21 02:47:53;;;;;;;7.70;4.40;;;;;;;19.90;61.63;100866.90;105477;1277;141507;-81
2022/07/21 02:50:24;;;;;;;8.60;4.40;;;;;;;19.91;61.32;100867.22;106165;1276;109454;-80
2022/07/21 02:52:58;;;;;;;7.90;4.80;;;;;;;19.89;61.41;100861.91;105316;1276;140202;-81
2022/07/21 02:55:26;;;;;;;7.50;4.20;;;;;;;19.88;61.33;100859.58;105609;1276;94322;-82
2022/07/21 02:58:12;;;;;;;7.70;4.50;;;;;;;19.81;61.43;100853.86;105471;1276;108842;-81
2022/07/21 03:00:44;;;;;;;8.40;5.00;;;;;;;19.75;61.54;100853.84;105802;1276;140192;-80
2022/07/21 03:03:12;;;;;;;8.30;4.40;;;;;;;19.72;61.68;100856.15;105308;1276;107765;-80
2022/07/21 03:05:41;;;;;;;10.00;4.70;;;;;;;19.70;61.60;100851.59;105216;1276;139754;-80
2022/07/21 03:08:10;;;;;;;9.20;4.50;;;;;;;19.72;61.57;100849.33;105715;1276;94241;-80
2022/07/21 03:10:39;;;;;;;7.40;4.60;;;;;;;19.71;61.34;100852.79;105576;1276;140361;-81
2022/07/21 03:13:08;;;;;;;7.50;4.60;;;;;;;19.69;61.39;100856.30;105836;1276;99155;-80
2022/07/21 03:15:37;;;;;;;7.70;4.20;;;;;;;19.69;61.53;100850.58;105811;1276;107277;-80
2022/07/21 03:18:05;;;;;;;9.70;4.90;;;;;;;19.70;61.61;100851.77;105693;1276;140123;-80
2022/07/21 03:20:36;;;;;;;6.90;4.50;;;;;;;19.66;61.43;100846.74;105746;1276;94310;-80
2022/07/21 03:23:05;;;;;;;8.20;4.60;;;;;;;19.62;61.79;100847.21;105575;1276;138189;-81
2022/07/21 03:25:33;;;;;;;7.50;4.70;;;;;;;19.54;61.90;100846.34;105667;1276;100130;-80
2022/07/21 03:28:02;;;;;;;8.00;4.80;;;;;;;19.50;62.03;100847.16;105568;1277;109592;-80
2022/07/21 03:30:30;;;;;;;6.90;4.10;;;;;;;19.46;62.00;100846.08;105440;1277;139699;-80
2022/07/21 03:32:58;;;;;;;8.60;4.40;;;;;;;19.44;62.34;100848.55;105788;1276;94318;-81
2022/07/21 03:35:26;;;;;;;7.80;4.60;;;;;;;19.43;62.43;100851.70;105792;1276;138457;-81
2022/07/21 03:37:57;;;;;;;9.40;4.80;;;;;;;19.43;62.28;100849.54;105860;1276;99826;-80
2022/07/21 03:40:27;;;;;;;8.40;4.40;;;;;;;19.44;62.17;100848.91;105799;1276;107875;-80
2022/07/21 03:42:58;;;;;;;7.20;4.40;;;;;;;19.44;62.41;100850.34;105527;1277;137118;-80
2022/07/21 03:45:30;;;;;;;8.70;4.30;;;;;;;19.49;62.27;100853.68;105902;1276;95158;-80
2022/07/21 03:48:00;;;;;;;7.80;4.20;;;;;;;19.58;62.12;100851.04;105836;1276;140014;-80
2022/07/21 03:50:29;;;;;;;10.30;4.40;;;;;;;19.63;61.94;100847.87;105799;1276;98673;-81
2022/07/21 03:52:58;;;;;;;7.60;3.90;;;;;;;19.62;61.56;100845.02;106084;1275;138946;-81
2022/07/21 03:55:27;;;;;;;7.30;4.30;;;;;;;19.62;61.52;100840.17;106059;1276;97878;-80
2022/07/21 03:58:01;;;;;;;7.10;4.00;;;;;;;19.63;61.67;100840.64;105747;1276;94718;-80
2022/07/21 04:00:38;;;;;;;8.10;4.30;;;;;;;19.67;61.44;100843.27;105774;1275;139730;-80
2022/07/21 04:03:08;;;;;;;8.90;4.20;;;;;;;19.82;61.08;100849.30;105675;1276;98832;-80
2022/07/21 04:05:38;;;;;;;7.40;4.30;;;;;;;19.85;61.12;100849.31;105742;1276;139744;-82
2022/07/21 04:08:08;;;;;;;7.80;4.20;;;;;;;19.86;60.97;100847.29;105711;1276;94338;-81
2022/07/21 04:10:38;;;;;;;7.80;4.10;;;;;;;19.85;60.85;100849.48;105604;1276;139501;-80
2022/07/21 04:13:12;;;;;;;8.00;4.00;;;;;;;19.94;61.02;100853.52;105840;1276;108094;-79
2022/07/21 04:15:41;;;;;;;7.40;3.90;;;;;;;19.91;60.90;100857.30;105835;1276;97121;-80
2022/07/21 04:18:10;;;;;;;7.20;3.90;;;;;;;19.93;60.85;100859.69;105656;1276;143066;-81
2022/07/21 04:20:38;;;;;;;7.10;4.10;;;;;;;19.98;60.95;100863.68;105826;1276;94453;-80
2022/07/21 04:23:05;;;;;;;8.10;3.90;;;;;;;20.11;60.62;100860.23;105820;1276;140189;-81
2022/07/21 04:25:35;;;;;;;7.80;3.90;;;;;;;20.19;60.32;100865.16;105982;1276;107698;-80
2022/07/21 04:28:03;;;;;;;8.40;3.90;;;;;;;20.26;60.15;100864.98;105893;1276;100257;-79
2022/07/21 04:30:32;;;;;;;7.90;3.70;;;;;;;20.28;59.84;100868.43;105832;1276;139598;-80
2022/07/21 04:32:59;;;;;;;7.30;3.90;;;;;;;20.32;59.75;100869.29;105919;1276;94544;-84
2022/07/21 04:35:27;;;;;;;7.30;3.40;;;;;;;20.35;59.72;100870.93;105761;1274;138539;-81
2022/07/21 04:37:55;;;;;;;6.70;3.80;;;;;;;20.34;59.30;100864.84;105760;1276;108290;-80
2022/07/21 04:40:23;;;;;;;6.80;3.60;;;;;;;20.34;59.35;100867.00;105947;1276;99985;-80
2022/07/21 04:42:51;;;;;;;7.50;3.50;;;;;;;20.41;59.21;100864.79;105796;1275;139135;-81
2022/07/21 04:45:20;;;;;;;6.70;3.40;;;;;;;20.47;59.27;100866.06;105775;1276;94590;-82
2022/07/21 04:47:51;;;;;;;6.70;3.60;;;;;;;20.49;58.68;100866.84;105707;1276;138632;-80
2022/07/21 04:50:21;;;;;;;7.70;3.60;;;;;;;20.53;58.80;100866.02;106011;1275;109104;-80
2022/07/21 04:52:51;;;;;;;7.40;3.30;;;;;;;20.58;58.58;100864.48;105841;1276;140079;-80
2022/07/21 04:55:20;;;;;;;6.60;3.00;;;;;;;20.66;58.57;100861.31;106301;1276;109379;-81
2022/07/21 04:57:50;;;;;;;6.00;3.10;;;;;;;20.73;58.85;100857.85;106308;1276;94312;-80
2022/07/21 05:00:21;;;;;;;6.60;3.20;;;;;;;20.79;58.47;100854.23;106524;1277;140157;-79
2022/07/21 05:02:51;;;;;;;6.30;2.90;;;;;;;20.83;57.71;100854.66;107362;1275;108762;-81
2022/07/21 05:05:19;;;;;;;7.40;3.30;;;;;;;20.86;56.88;100853.39;107033;1276;138306;-80
2022/07/21 05:07:48;;;;;;;8.00;3.30;;;;;;;20.95;57.22;100851.98;105452;1276;107536;-79
2022/07/21 05:10:18;;;;;;;6.50;3.00;;;;;;;21.05;56.48;100845.74;105616;1276;94643;-81
2022/07/21 05:12:46;;;;;;;7.90;3.80;;;;;;;21.12;56.07;100845.16;105584;1276;139167;-79
2022/07/21 05:15:14;;;;;;;11.90;7.30;;;;;;;21.16;55.39;100841.97;105730;1276;107879;-81
2022/07/21 05:17:42;;;;;;;5.90;2.50;;;;;;;21.20;54.97;100841.89;105524;1276;140971;-80
2022/07/21 05:20:10;;;;;;;6.90;2.60;;;;;;;21.30;54.93;100847.59;105419;1276;108585;-81
2022/07/21 05:22:39;;;;;;;8.80;3.10;;;;;;;21.37;54.69;100846.07;105524;1276;138286;-79
2022/07/21 05:25:07;;;;;;;6.30;3.00;;;;;;;21.44;54.19;100850.11;105746;1276;94844;-80
2022/07/21 05:27:35;;;;;;;6.60;2.80;;;;;;;21.51;53.75;100852.91;105878;1276;106894;-80
2022/07/21 05:30:05;;;;;;;7.80;2.60;;;;;;;21.57;53.53;100854.34;105803;1276;138046;-81
2022/07/21 05:32:33;;;;;;;5.90;2.70;;;;;;;21.65;53.09;100856.75;105831;1275;107479;-80
2022/07/21 05:35:01;;;;;;;6.20;2.30;;;;;;;21.74;52.71;100860.13;105672;1276;138973;-81
2022/07/21 05:37:29;;;;;;;5.80;2.40;;;;;;;21.82;52.55;100859.80;105754;1276;93913;-81
2022/07/21 05:39:57;;;;;;;5.60;2.20;;;;;;;21.88;51.77;100859.38;105640;1276;108094;-81
2022/07/21 05:42:24;;;;;;;6.00;2.10;;;;;;;21.95;50.99;100854.42;105520;1276;137399;-80
2022/07/21 05:44:52;;;;;;;6.30;2.40;;;;;;;22.02;50.83;100853.44;105680;1276;109389;-80
2022/07/21 05:47:20;;;;;;;5.20;2.10;;;;;;;22.12;51.21;100857.64;105768;1276;139965;-80
2022/07/21 05:49:48;;;;;;;6.30;2.00;;;;;;;22.21;49.99;100858.66;105725;1275;94292;-80
2022/07/21 05:52:16;;;;;;;7.00;2.20;;;;;;;22.27;49.69;100858.63;105842;1276;108871;-82
2022/07/21 05:54:45;;;;;;;6.00;2.10;;;;;;;22.35;50.04;100859.70;105805;1276;138265;-80
2022/07/21 05:57:13;;;;;;;5.00;2.10;;;;;;;22.41;49.34;100853.19;105846;1276;109421;-79
2022/07/21 05:59:41;;;;;;;6.30;2.40;;;;;;;22.47;49.59;100848.92;105623;1276;137262;-80
2022/07/21 06:02:09;;;;;;;6.80;2.20;;;;;;;22.53;49.69;100846.31;105880;1275;94629;-81
2022/07/21 06:04:37;;;;;;;6.20;2.20;;;;;;;22.61;49.52;100851.44;105655;1276;138844;-80
2022/07/21 06:07:05;;;;;;;5.90;2.20;;;;;;;22.69;49.40;100854.67;105728;1276;99965;-81
2022/07/21 06:09:33;;;;;;;5.50;2.20;;;;;;;22.74;48.47;100852.64;105746;1275;108802;-81
2022/07/21 06:12:01;;;;;;;5.80;2.00;;;;;;;22.78;48.21;100852.61;105594;1276;139873;-81
2022/07/21 06:14:29;;;;;;;6.30;1.90;;;;;;;22.81;48.16;100847.30;105755;1276;94741;-79
2022/07/21 06:16:57;;;;;;;5.60;2.00;;;;;;;22.88;48.06;100843.02;105408;1276;140170;-79
2022/07/21 06:19:25;;;;;;;5.50;2.10;;;;;;;22.92;47.79;100841.48;105502;1275;99883;-79
2022/07/21 06:21:59;;;;;;;5.40;2.10;;;;;;;22.94;46.76;100841.86;104897;1276;108452;-79
2022/07/21 06:24:27;;;;;;;5.30;2.00;;;;;;;22.94;46.73;100834.96;104969;1276;138552;-80
2022/07/21 06:26:58;;;;;;;6.80;2.30;;;;;;;22.97;46.97;100833.30;105679;1276;94887;-80
2022/07/21 06:29:33;;;;;;;5.70;2.30;;;;;;;23.05;46.97;100828.94;105535;1276;140072;-81
2022/07/21 06:32:01;;;;;;;5.60;2.30;;;;;;;23.11;46.93;100824.73;105828;1275;99331;-82
2022/07/21 06:34:29;;;;;;;9.30;2.70;;;;;;;23.16;46.17;100825.30;105692;1275;108271;-81
2022/07/21 06:36:57;;;;;;;6.20;2.30;;;;;;;23.20;46.90;100831.16;105828;1276;137857;-80
2022/07/21 06:39:25;;;;;;;6.70;2.30;;;;;;;23.26;47.17;100831.25;105852;1277;94386;-79
2022/07/21 06:41:53;;;;;;;6.40;2.30;;;;;;;23.33;47.05;100834.96;105574;1276;138060;-80
2022/07/21 06:44:21;;;;;;;6.90;2.40;;;;;;;23.41;46.86;100833.42;105908;1276;98251;-81
2022/07/21 06:46:49;;;;;;;5.80;2.40;;;;;;;23.52;46.87;100831.55;105574;1276;138268;-80
2022/07/21 06:49:16;;;;;;;6.00;2.30;;;;;;;23.61;46.46;100834.19;105883;1277;94104;-80
2022/07/21 06:51:44;;;;;;;6.20;2.40;;;;;;;23.66;46.33;100831.81;105688;1279;93764;-80
2022/07/21 06:54:12;;;;;;;5.00;2.20;;;;;;;23.73;46.00;100834.33;105736;1275;139110;-80
2022/07/21 06:56:40;;;;;;;5.80;2.30;;;;;;;23.78;45.59;100827.77;105522;1276;99396;-79
2022/07/21 06:59:08;;;;;;;6.20;2.30;;;;;;;23.81;45.59;100824.48;105125;1276;140080;-79
2022/07/21 07:01:38;;;;;;;6.60;2.20;;;;;;;23.85;45.63;100828.88;105641;1276;94247;-79
2022/07/21 07:04:07;;;;;;;6.40;2.50;;;;;;;23.92;45.40;100827.00;105565;1277;94305;-81
2022/07/21 07:06:35;;;;;;;5.20;2.10;;;;;;;24.00;45.55;100829.80;105473;1277;138292;-80
2022/07/21 07:09:04;;;;;;;5.40;2.00;;;;;;;24.07;45.38;100836.54;104980;1277;99512;-80
2022/07/21 07:11:34;;;;;;;5.70;2.10;;;;;;;24.13;45.09;100838.66;105568;1275;139489;-81
2022/07/21 07:14:02;;;;;;;4.70;1.90;;;;;;;24.19;44.49;100838.17;105426;1276;94313;-79
2022/07/21 07:16:44;;;;;;;5.60;1.80;;;;;;;24.23;43.73;100839.33;105280;1276;140131;-82
2022/07/21 07:19:13;;;;;;;7.70;2.00;;;;;;;24.24;43.44;100839.98;105396;1276;107843;-80
2022/07/21 07:21:40;;;;;;;8.80;2.10;;;;;;;24.31;44.20;100840.30;105702;1276;99043;-81
2022/07/21 07:24:08;;;;;;;6.00;2.20;;;;;;;24.43;43.99;100846.11;105628;1275;139029;-81
2022/07/21 07:26:37;;;;;;;4.60;1.50;;;;;;;24.54;44.18;100851.83;105748;1276;94642;-80
2022/07/21 07:29:04;;;;;;;5.20;1.90;;;;;;;24.61;42.76;100851.66;105604;1277;139275;-81
2022/07/21 07:31:33;;;;;;;4.20;1.60;;;;;;;24.68;42.57;100853.09;106319;1277;107855;-81
2022/07/21 07:34:01;;;;;;;4.10;1.60;;;;;;;24.69;41.82;100854.27;105864;1276;100107;-80
2022/07/21 07:36:30;;;;;;;5.20;1.80;;;;;;;24.74;42.26;100855.95;105902;1276;139850;-80
2022/07/21 07:38:58;;;;;;;4.50;1.40;;;;;;;24.83;42.79;100862.41;105920;1276;94734;-79
2022/07/21 07:41:26;;;;;;;4.60;1.50;;;;;;;24.90;40.85;100865.20;105468;1275;137832;-79
2022/07/21 07:43:54;;;;;;;4.60;1.40;;;;;;;24.92;42.03;100862.16;105740;1276;108404;-81
2022/07/21 07:46:23;;;;;;;4.70;1.60;;;;;;;24.96;41.38;100864.88;105734;1277;100086;-81
2022/07/21 07:48:52;;;;;;;5.20;1.80;;;;;;;25.02;41.30;100865.31;105621;1276;138482;-80
2022/07/21 07:51:20;;;;;;;4.90;1.50;;;;;;;25.10;40.94;100867.27;105394;1276;94213;-80
2022/07/21 07:53:48;;;;;;;5.30;1.60;;;;;;;25.13;40.34;100867.71;105455;1276;137122;-80
2022/07/21 07:56:16;;;;;;;5.50;1.50;;;;;;;25.19;40.81;100862.16;105550;1277;108972;-80
2022/07/21 07:58:44;;;;;;;5.10;1.60;;;;;;;25.30;41.51;100861.66;105232;1275;138510;-79
2022/07/21 08:01:13;;;;;;;3.90;1.40;;;;;;;25.45;41.87;100858.42;104805;1276;109257;-81
2022/07/21 08:03:43;;;;;;;4.90;1.70;;;;;;;25.60;41.02;100859.02;105664;1276;95593;-79
2022/07/21 08:06:12;;;;;;;4.50;1.40;;;;;;;25.69;40.69;100851.76;105559;1276;139352;-80
2022/07/21 08:08:40;;;;;;;4.70;1.40;;;;;;;25.81;41.16;100850.73;105701;1276;107381;-79
2022/07/21 08:11:10;;;;;;;5.20;1.40;;;;;;;25.92;39.88;100849.13;105546;1277;138901;-80
2022/07/21 08:13:38;;;;;;;4.60;1.80;;;;;;;25.95;38.74;100845.62;105135;1276;109409;-79
2022/07/21 08:16:06;;;;;;;4.40;1.30;;;;;;;25.95;38.73;100843.02;105112;1277;94398;-80
2022/07/21 08:18:34;;;;;;;5.10;1.40;;;;;;;25.99;39.37;100839.98;105404;1277;141892;-79
2022/07/21 08:21:02;;;;;;;4.60;1.50;;;;;;;26.06;38.55;100837.41;105681;1276;107940;-79
2022/07/21 08:23:29;;;;;;;4.30;1.30;;;;;;;26.13;38.50;100839.59;105345;1276;138547;-79
2022/07/21 08:25:57;;;;;;;4.90;1.30;;;;;;;26.22;39.36;100843.56;105370;1276;107740;-80
2022/07/21 08:28:26;;;;;;;4.10;1.30;;;;;;;26.29;39.39;100835.86;105362;1276;94364;-80
2022/07/21 08:30:54;;;;;;;4.20;1.40;;;;;;;26.38;39.41;100831.59;105264;1276;140050;-81
2022/07/21 08:33:21;;;;;;;5.50;1.50;;;;;;;26.44;38.64;100828.55;105639;1277;107736;-80
2022/07/21 08:35:49;;;;;;;5.50;1.40;;;;;;;26.53;38.38;100827.18;105372;1276;138288;-81
2022/07/21 08:38:19;;;;;;;4.60;1.40;;;;;;;26.65;38.94;100830.91;105269;1276;107864;-81
2022/07/21 08:40:47;;;;;;;4.30;1.30;;;;;;;26.83;37.94;100829.15;105348;1276;138431;-80
2022/07/21 08:43:15;;;;;;;4.00;1.20;;;;;;;26.94;36.99;100835.88;105649;1276;94859;-80
2022/07/21 08:45:43;;;;;;;4.90;1.30;;;;;;;27.00;37.25;100840.81;105717;1276;108984;-80
2022/07/21 08:48:13;;;;;;;5.00;1.40;;;;;;;27.00;36.94;100841.69;105760;1276;138570;-80
2022/07/21 08:50:41;;;;;;;5.00;1.30;;;;;;;27.07;37.30;100843.81;105501;1276;109544;-80
2022/07/21 08:53:09;;;;;;;4.10;1.20;;;;;;;27.20;37.55;100841.77;105601;1276;139655;-80
2022/07/21 08:55:39;;;;;;;6.00;1.60;;;;;;;27.33;36.09;100836.36;105984;1276;94644;-81
2022/07/21 08:58:14;;;;;;;5.00;1.40;;;;;;;27.41;36.31;100839.88;106248;1276;109330;-82
2022/07/21 09:00:44;;;;;;;4.30;1.30;;;;;;;27.54;35.87;100838.23;106814;1276;139463;-81
2022/07/21 09:03:14;;;;;;;5.40;1.30;;;;;;;27.68;36.40;100840.21;105610;1276;106614;-81
2022/07/21 09:06:07;;;;;;;5.20;1.40;;;;;;;27.92;35.57;100846.59;105482;1276;137459;-82
2022/07/21 09:08:40;;;;;;;4.60;1.30;;;;;;;28.11;35.63;100851.07;105621;1276;94324;-82
2022/07/21 09:11:13;;;;;;;3.70;1.20;;;;;;;28.26;35.08;100849.27;105615;1276;139759;-82
2022/07/21 09:13:42;;;;;;;4.50;1.30;;;;;;;28.39;34.91;100843.27;105834;1277;99950;-81
2022/07/21 09:16:11;;;;;;;6.20;1.30;;;;;;;28.49;34.59;100842.88;105849;1276;109617;-81
2022/07/21 09:18:48;;;;;;;5.00;1.30;;;;;;;28.57;34.90;100837.23;105823;1277;138386;-81
2022/07/21 09:21:19;;;;;;;4.10;1.30;;;;;;;28.67;33.64;100835.19;105616;1276;94302;-81
2022/07/21 09:23:47;;;;;;;4.00;1.40;;;;;;;28.72;32.93;100829.09;105653;1276;138332;-82
2022/07/21 09:26:15;;;;;;;5.00;1.30;;;;;;;28.86;33.11;100824.81;105902;1276;100972;-82
2022/07/21 09:28:43;;;;;;;4.00;1.30;;;;;;;29.06;32.19;100820.06;105496;1276;138873;-81
2022/07/21 09:31:14;;;;;;;4.90;1.10;;;;;;;29.32;31.43;100812.97;105849;1277;94029;-81
2022/07/21 09:33:45;;;;;;;3.60;1.10;;;;;;;29.48;31.03;100818.36;105981;1276;94217;-80
2022/07/21 09:36:16;;;;;;;3.50;1.30;;;;;;;29.71;30.35;100821.18;105769;1277;138216;-80
2022/07/21 09:38:58;;;;;;;3.90;1.20;;;;;;;30.55;28.47;100819.64;106002;1276;98882;-81
2022/07/21 09:41:26;;;;;;;5.90;1.30;;;;;;;31.67;28.43;100814.40;105662;1277;137224;-81
2022/07/21 09:43:57;;;;;;;3.70;1.10;;;;;;;32.81;28.89;100808.52;105814;1276;94458;-80
2022/07/21 09:46:28;;;;;;;3.60;1.10;;;;;;;33.69;27.01;100806.13;105832;1277;94717;-81
2022/07/21 09:49:04;;;;;;;4.80;1.30;;;;;;;34.45;25.91;100805.42;105628;1276;139938;-81
2022/07/21 09:51:52;;;;;;;4.40;1.30;;;;;;;35.48;24.98;100804.55;105683;1277;99354;-81
2022/07/21 09:54:20;;;;;;;4.60;1.20;;;;;;;36.36;23.26;100808.02;105419;1276;137299;-82
2022/07/21 09:56:47;;;;;;;3.40;1.20;;;;;;;37.15;22.84;100805.98;105499;1276;94155;-82
2022/07/21 09:59:15;;;;;;;4.20;1.10;;;;;;;37.49;21.74;100803.63;105524;1276;138806;-82
2022/07/21 10:01:46;;;;;;;5.10;1.20;;;;;;;37.88;21.68;100800.76;105605;1276;107902;-82
2022/07/21 10:04:14;;;;;;;4.90;1.20;;;;;;;38.20;20.92;100802.85;105649;1276;99262;-81
2022/07/21 10:06:46;;;;;;;3.90;1.20;;;;;;;38.75;20.37;100808.98;105276;1277;140299;-82
2022/07/21 10:09:14;;;;;;;5.10;1.20;;;;;;;39.30;19.96;100809.33;105544;1277;95683;-81
2022/07/21 10:11:46;;;;;;;4.70;1.30;;;;;;;39.61;19.24;100808.67;105565;1277;137989;-82
2022/07/21 10:14:13;;;;;;;3.80;1.10;;;;;;;39.90;19.41;100810.61;105624;1277;107367;-80
2022/07/21 10:16:41;;;;;;;4.20;1.20;;;;;;;40.09;18.65;100803.23;105578;1277;141333;-82
2022/07/21 10:19:31;;;;;;;3.30;1.00;;;;;;;40.24;18.93;100807.42;105834;1277;109370;-82
2022/07/21 10:22:12;;;;;;;3.40;1.10;;;;;;;40.41;18.78;100803.02;105611;1277;94703;-82
2022/07/21 10:24:41;;;;;;;3.80;1.20;;;;;;;40.69;18.39;100799.52;105375;1276;140017;-82
2022/07/21 10:27:12;;;;;;;3.10;1.00;;;;;;;41.25;17.50;100799.83;105720;1276;109358;-82
2022/07/21 10:30:03;;;;;;;3.60;1.20;;;;;;;41.57;16.89;100799.89;105547;1277;141203;-81
2022/07/21 10:32:37;;;;;;;4.80;1.20;;;;;;;41.57;17.79;100799.33;105795;1277;106511;-81
2022/07/21 10:35:25;;;;;;;3.80;1.10;;;;;;;41.91;17.47;100785.38;105966;1277;137874;-83
2022/07/21 10:37:53;;;;;;;3.70;1.20;;;;;;;42.32;16.96;100787.48;106195;1276;94401;-82
2022/07/21 10:40:21;;;;;;;5.00;1.10;;;;;;;42.42;16.49;100780.89;106088;1275;109439;-81
2022/07/21 10:43:01;;;;;;;3.80;1.20;;;;;;;42.63;16.67;100780.67;105747;1276;138581;-82
2022/07/21 10:45:34;;;;;;;4.20;1.30;;;;;;;42.87;16.60;100779.98;105802;1277;109684;-81
2022/07/21 10:48:05;;;;;;;3.10;1.10;;;;;;;43.07;16.14;100780.82;105638;1277;201276;-82
2022/07/21 10:50:33;;;;;;;5.40;1.30;;;;;;;42.98;16.65;100780.05;105524;1278;94587;-82
2022/07/21 10:53:04;;;;;;;4.80;1.30;;;;;;;42.91;16.23;100775.64;105950;1277;137351;-81
2022/07/21 10:55:36;;;;;;;4.10;1.10;;;;;;;42.87;16.12;100774.79;105733;1276;98568;-82
2022/07/21 10:58:24;;;;;;;4.70;1.10;;;;;;;42.74;16.68;100771.08;105633;1277;108744;-80
2022/07/21 11:01:00;;;;;;;3.90;1.30;;;;;;;42.47;15.86;100766.90;105623;1277;139883;-82
2022/07/21 11:03:38;;;;;;;3.90;1.10;;;;;;;42.43;15.86;100763.16;106129;1277;94235;-82
2022/07/21 11:06:15;;;;;;;4.30;1.30;;;;;;;42.24;16.14;100760.17;105981;1281;137088;-82
2022/07/21 11:08:50;;;;;;;4.10;1.20;;;;;;;41.56;17.09;100761.75;106142;1277;100017;-82
2022/07/21 11:11:21;;;;;;;8.50;1.90;;;;;;;40.79;17.64;100762.19;106515;1277;137457;-82
2022/07/21 11:14:08;;;;;;;5.50;1.50;;;;;;;40.00;18.44;100759.89;105689;1277;94255;-81
2022/07/21 11:17:03;;;;;;;5.40;1.30;;;;;;;39.04;19.39;100763.20;105818;1277;141010;-81
2022/07/21 11:19:39;;;;;;;4.60;1.30;;;;;;;37.84;20.01;100754.70;105892;1277;108821;-82
2022/07/21 11:22:11;;;;;;;5.00;1.30;;;;;;;37.24;20.89;100752.32;105607;1277;100637;-81
2022/07/21 11:24:42;;;;;;;4.60;1.40;;;;;;;36.88;21.78;100752.91;105525;1277;137306;-81
2022/07/21 11:27:13;;;;;;;4.90;1.20;;;;;;;36.22;22.77;100755.51;105917;1276;94341;-82